Glen Hope, PA

9:16 AM EST en Enero 25, 2015 (GMT -0500)
Indiana County-Stewart | Change Station
CLOSE
Current Station
Aeropuerto
Location: Indiana,
Altura: 1407 ft
Estaciones meteorológicas cercanas
Aviso en curso: Winter Weather Advisory

Alt 1407 ft 40.63 °N, 79.11 °W | Updated 21 minutes ago

Nublado
Nublado
34 ° F
Sensación térmica 29 ° F
N
6
Viento Variable Viento desde Oeste

Hoy
Alta -- | Baja -- ° F
--% Posibilidad de precipitaciones
Ayer
Alta -- | Baja -- ° F
Precip. -- pul
7:30 AM 5:22 PM
Creciente, 32% visible
Presión 29.78 pul
Visibilidad 1.2 Millas
Nubes Nublado 500 ft
Vientos helados 29 ° F
Punto de rocío 32 ° F
Humedad 93%
Precipitaciones 0.00 pul
Espesor de la nieve No disponible.
UV 0 de una escala de 12
Polen .10 de una escala de 12
Calidad del aire No disponible.
Flu Activity No disponible.
METAR KIDI 251355Z AUTO 27005KT 1 1/4SM BR OVC005 01/00 A2978 RMK A01

More Conditions Fewer Conditions

Presión 29.78 pul
Visibilidad 1.2 Millas
Nubes Nublado 500 ft
Vientos helados 29 ° F
Punto de rocío 32 ° F
Humedad 93%
Precipitaciones 0.00 pul
Espesor de la nieve No disponible.
UV 0 de una escala de 12
Polen .10 de una escala de 12
Calidad del aire No disponible.
Flu Activity No disponible.
METAR KIDI 251355Z AUTO 27005KT 1 1/4SM BR OVC005 01/00 A2978 RMK A01

More Conditions Fewer Conditions

10-Day Weather Forecast

Almanac

Astronomía

Jan. 25, 2015 Salida Puesta
Hora real
Crepúsculo civil
Crepúsculo náutico
Crepúsculo astronómico
Luna
Horas de luz
Horas de luz
Tomorrow will be .
, % of the Moon is Illuminated

Extremos de hoy

Máximos del estado Bajos del estado

Community

WunderPhotos

Upload Photos

1,789,893 ¡fotos cargadas!

WunderBlogs® & News

Nearby

Calidad del aire

  Calidad del aire Índice AQ Contaminante
Not available.

Grosos de nieve

Estación Profundido Altura

Actividad de terremotos

Ciudad Distance Mag. Tiempo y dato
Magnitud mínima muestra es 2,5.

Temperaturas de aguas costeras

Lugar Temperatura

Estaciones meteorológicas cercanas